Time;durP1;ratioP1;P1;durP2;ratioP2;P2;SDS_P1;SDS_P2;PMS_P1;PMS_P2;Temp;Humidity;BMP_temperature;BMP_pressure;BME280_temperature;BME280_humidity;BME280_pressure;Samples;Min_cycle;Max_cycle;Signal;HPM_P1;HPM_P2
2022/06/17 00:02:08;;;;;;;7.80;7.00;;;;;;;;;;5000591;28;20492;-74
2022/06/17 00:04:34;;;;;;;6.17;5.57;;;;;;;;;;5003108;28;20450;-74
2022/06/17 00:07:02;;;;;;;6.63;6.13;;;;;;;;;;5001022;28;20493;-74
2022/06/17 00:09:30;;;;;;;9.33;7.93;;;;;;;;;;5002119;28;20474;-74
2022/06/17 00:11:58;;;;;;;8.67;6.60;;;;;;;;;;5002149;28;20485;-74
2022/06/17 00:14:25;;;;;;;8.67;6.43;;;;;;;;;;5020355;28;20485;-74
2022/06/17 00:16:51;;;;;;;7.10;6.20;;;;;;;;;;5022133;28;20462;-74
2022/06/17 00:19:19;;;;;;;8.23;7.43;;;;;;;;;;5003107;28;20481;-74
2022/06/17 00:21:47;;;;;;;10.10;6.40;;;;;;;;;;4999368;28;20458;-74
2022/06/17 00:24:15;;;;;;;6.60;5.40;;;;;;;;;;5000307;28;20482;-74
2022/06/17 00:26:41;;;;;;;10.43;6.27;;;;;;;;;;5001404;28;20483;-74
2022/06/17 00:29:10;;;;;;;7.43;6.10;;;;;;;;;;5000083;28;20486;-74
2022/06/17 00:31:37;;;;;;;7.03;6.40;;;;;;;;;;5001681;28;20461;-74
2022/06/17 00:34:03;;;;;;;7.17;6.47;;;;;;;;;;5001255;28;21028;-74
2022/06/17 00:36:29;;;;;;;7.13;6.43;;;;;;;;;;5001663;28;20453;-74
2022/06/17 00:38:55;;;;;;;7.00;5.97;;;;;;;;;;5000963;28;20493;-74
2022/06/17 00:41:25;;;;;;;7.47;6.67;;;;;;;;;;4999964;28;21368;-74
2022/06/17 00:43:52;;;;;;;11.70;6.37;;;;;;;;;;5001811;28;20478;-74
2022/06/17 00:46:25;;;;;;;6.43;5.83;;;;;;;;;;4999725;28;20996;-74
2022/06/17 00:48:56;;;;;;;11.33;5.60;;;;;;;;;;5001177;28;20482;-74
2022/06/17 00:51:24;;;;;;;8.47;6.60;;;;;;;;;;5001128;28;20472;-74
2022/06/17 00:53:52;;;;;;;11.03;6.37;;;;;;;;;;5000794;28;20483;-73
2022/06/17 00:56:19;;;;;;;9.03;6.63;;;;;;;;;;5000169;28;20463;-74
2022/06/17 00:58:57;;;;;;;8.23;6.77;;;;;;;;;;5000449;28;20478;-74
2022/06/17 01:01:25;;;;;;;8.83;7.50;;;;;;;;;;5001196;28;20465;-74
2022/06/17 01:03:53;;;;;;;9.00;6.90;;;;;;;;;;4998690;28;20487;-74
2022/06/17 01:06:21;;;;;;;7.97;7.17;;;;;;;;;;4999088;28;20455;-74
2022/06/17 01:11:37;;;;;;;9.47;7.47;;;;;;;;;;5001329;28;20515;-74
2022/06/17 01:14:05;;;;;;;10.00;8.10;;;;;;;;;;4999764;28;20482;-74
2022/06/17 01:16:35;;;;;;;8.00;6.60;;;;;;;;;;5002117;28;20474;-74
2022/06/17 01:19:05;;;;;;;9.80;7.50;;;;;;;;;;4999961;28;20478;-74
2022/06/17 01:21:37;;;;;;;8.23;7.43;;;;;;;;;;5000318;28;20836;-74
2022/06/17 01:24:07;;;;;;;10.17;7.90;;;;;;;;;;5000715;28;20490;-74
2022/06/17 01:26:33;;;;;;;9.90;8.90;;;;;;;;;;4999801;28;20473;-74
2022/06/17 01:28:59;;;;;;;8.60;7.13;;;;;;;;;;4999196;28;20859;-74
2022/06/17 01:31:26;;;;;;;11.00;7.80;;;;;;;;;;5000383;28;20466;-74
2022/06/17 01:33:53;;;;;;;8.87;7.80;;;;;;;;;;5000464;28;20486;-74
2022/06/17 01:36:22;;;;;;;10.00;7.30;;;;;;;;;;4998477;28;20525;-74
2022/06/17 01:38:50;;;;;;;8.33;7.53;;;;;;;;;;4997947;28;21104;-74
2022/06/17 01:41:18;;;;;;;11.00;8.77;;;;;;;;;;5000881;28;20462;-74
2022/06/17 01:43:46;;;;;;;8.40;7.70;;;;;;;;;;5000413;28;21010;-72
2022/06/17 01:46:15;;;;;;;9.67;8.67;;;;;;;;;;4999592;28;20462;-72
2022/06/17 01:48:44;;;;;;;9.87;7.90;;;;;;;;;;5000721;28;20484;-72
2022/06/17 01:51:11;;;;;;;9.97;8.30;;;;;;;;;;4998828;28;20466;-72
2022/06/17 01:53:39;;;;;;;9.70;8.13;;;;;;;;;;5000549;28;20490;-72
2022/06/17 01:56:08;;;;;;;12.70;9.20;;;;;;;;;;4999557;28;20458;-72
2022/06/17 01:58:37;;;;;;;11.73;9.50;;;;;;;;;;5000741;28;20477;-72
2022/06/17 02:01:05;;;;;;;13.83;9.80;;;;;;;;;;4999801;28;20460;-72
2022/06/17 02:03:33;;;;;;;16.17;9.10;;;;;;;;;;4998103;28;20492;-72
2022/06/17 02:06:04;;;;;;;10.73;8.17;;;;;;;;;;4999885;28;20469;-72
2022/06/17 02:08:31;;;;;;;10.80;8.10;;;;;;;;;;4998673;28;20493;-72
2022/06/17 02:10:57;;;;;;;12.27;9.30;;;;;;;;;;5000970;28;20470;-72
2022/06/17 02:13:23;;;;;;;9.60;8.70;;;;;;;;;;4998886;28;20489;-72
2022/06/17 02:15:52;;;;;;;10.90;9.80;;;;;;;;;;4998623;28;20481;-71
2022/06/17 02:18:20;;;;;;;10.80;9.83;;;;;;;;;;4997197;28;20932;-72
2022/06/17 02:20:47;;;;;;;10.50;9.40;;;;;;;;;;4999908;28;20466;-72
2022/06/17 02:23:13;;;;;;;8.67;7.60;;;;;;;;;;4999902;28;20516;-72
2022/06/17 02:25:43;;;;;;;11.60;9.27;;;;;;;;;;4999120;28;20464;-72
2022/06/17 02:28:09;;;;;;;12.63;8.90;;;;;;;;;;4998909;28;20512;-72
2022/06/17 02:30:36;;;;;;;9.70;8.43;;;;;;;;;;4999985;28;20462;-72
2022/06/17 02:33:05;;;;;;;10.63;9.63;;;;;;;;;;4998358;28;20466;-72
2022/06/17 02:35:34;;;;;;;8.90;7.80;;;;;;;;;;4998056;28;20458;-72
2022/06/17 02:38:00;;;;;;;9.13;8.20;;;;;;;;;;4999259;28;20477;-72
2022/06/17 02:40:29;;;;;;;9.20;8.20;;;;;;;;;;5000172;28;20469;-72
2022/06/17 02:42:56;;;;;;;8.90;7.60;;;;;;;;;;5000253;28;20857;-72
2022/06/17 02:45:23;;;;;;;10.70;9.60;;;;;;;;;;4999515;28;20469;-72
2022/06/17 02:47:50;;;;;;;14.43;8.93;;;;;;;;;;4999088;28;20474;-72
2022/06/17 02:50:19;;;;;;;9.20;8.33;;;;;;;;;;4999121;28;20465;-72
2022/06/17 02:52:46;;;;;;;11.53;7.90;;;;;;;;;;5001990;28;20481;-72
2022/06/17 02:55:14;;;;;;;13.97;8.80;;;;;;;;;;5002873;28;20461;-71
2022/06/17 02:57:40;;;;;;;9.07;8.17;;;;;;;;;;5003110;28;20478;-72
2022/06/17 03:00:11;;;;;;;8.13;7.33;;;;;;;;;;5001356;28;20473;-72
2022/06/17 03:02:39;;;;;;;10.17;8.50;;;;;;;;;;5002746;28;20535;-72
2022/06/17 03:05:09;;;;;;;9.37;8.27;;;;;;;;;;5001588;28;20458;-72
2022/06/17 03:07:38;;;;;;;10.20;8.23;;;;;;;;;;5001898;28;20465;-72
2022/06/17 03:10:06;;;;;;;8.80;7.87;;;;;;;;;;5001573;28;20461;-72
2022/06/17 03:12:32;;;;;;;9.00;8.10;;;;;;;;;;5002493;28;20819;-72
2022/06/17 03:15:01;;;;;;;8.97;8.07;;;;;;;;;;5002728;28;20473;-72
2022/06/17 03:17:28;;;;;;;11.90;9.00;;;;;;;;;;5003777;28;20472;-72
2022/06/17 03:19:55;;;;;;;10.00;9.00;;;;;;;;;;5003180;28;20461;-72
2022/06/17 03:22:23;;;;;;;11.30;9.10;;;;;;;;;;5001303;28;20489;-72
2022/06/17 03:24:53;;;;;;;14.67;10.07;;;;;;;;;;5003113;28;20459;-72
2022/06/17 03:27:23;;;;;;;12.33;8.80;;;;;;;;;;5002044;28;20465;-71
2022/06/17 03:29:51;;;;;;;14.80;9.60;;;;;;;;;;5001602;28;20466;-72
2022/06/17 03:32:22;;;;;;;11.43;8.90;;;;;;;;;;5002712;28;20868;-72
2022/06/17 03:34:51;;;;;;;10.20;9.20;;;;;;;;;;5002445;28;20867;-72
2022/06/17 03:37:19;;;;;;;11.83;9.73;;;;;;;;;;5001163;28;20890;-72
2022/06/17 03:39:48;;;;;;;13.03;8.73;;;;;;;;;;5003805;28;20829;-72
2022/06/17 03:42:17;;;;;;;11.73;8.70;;;;;;;;;;5002171;28;20473;-72
2022/06/17 03:44:45;;;;;;;10.30;9.00;;;;;;;;;;5002592;28;20838;-72
2022/06/17 03:47:14;;;;;;;12.17;10.33;;;;;;;;;;5002498;28;20461;-72
2022/06/17 03:49:42;;;;;;;12.10;9.70;;;;;;;;;;5002113;28;20458;-72
2022/06/17 03:52:13;;;;;;;10.17;9.17;;;;;;;;;;5002284;28;20490;-72
2022/06/17 03:54:39;;;;;;;12.77;10.27;;;;;;;;;;5002962;28;20471;-72
2022/06/17 03:57:09;;;;;;;11.80;9.53;;;;;;;;;;4997707;28;20492;-72
2022/06/17 03:59:37;;;;;;;9.77;8.77;;;;;;;;;;4995093;28;20469;-72
2022/06/17 04:02:06;;;;;;;10.97;9.80;;;;;;;;;;4999593;28;20489;-72
2022/06/17 04:04:34;;;;;;;8.60;7.83;;;;;;;;;;4999224;28;20461;-72
2022/06/17 04:07:01;;;;;;;10.73;8.73;;;;;;;;;;4994820;28;20472;-72
2022/06/17 04:09:28;;;;;;;10.43;9.43;;;;;;;;;;4993343;28;20517;-72
2022/06/17 04:12:01;;;;;;;11.47;8.80;;;;;;;;;;4995806;28;20485;-72
2022/06/17 04:14:29;;;;;;;8.87;8.07;;;;;;;;;;4994811;28;20486;-72
2022/06/17 04:17:00;;;;;;;9.73;8.73;;;;;;;;;;4997073;28;20470;-72
2022/06/17 04:19:27;;;;;;;9.20;8.23;;;;;;;;;;4998537;28;20469;-72
2022/06/17 04:21:57;;;;;;;13.97;10.07;;;;;;;;;;4993169;28;20485;-72
2022/06/17 04:24:24;;;;;;;10.17;8.30;;;;;;;;;;4993806;28;20525;-72
2022/06/17 04:26:52;;;;;;;12.03;10.03;;;;;;;;;;4993001;28;20482;-71
2022/06/17 04:29:21;;;;;;;12.50;9.13;;;;;;;;;;4993279;28;20829;-72
2022/06/17 04:31:51;;;;;;;19.20;11.23;;;;;;;;;;4997743;28;21283;-71
2022/06/17 04:34:19;;;;;;;14.83;10.93;;;;;;;;;;4993836;28;20576;-71
2022/06/17 04:36:47;;;;;;;15.07;12.03;;;;;;;;;;4995330;28;20461;-71
2022/06/17 04:39:20;;;;;;;12.87;11.50;;;;;;;;;;4996267;28;20485;-72
2022/06/17 04:41:48;;;;;;;11.83;10.53;;;;;;;;;;4993234;28;20468;-71
2022/06/17 04:44:14;;;;;;;14.93;11.30;;;;;;;;;;4993166;28;20489;-72
2022/06/17 04:46:43;;;;;;;17.37;12.37;;;;;;;;;;4995929;28;20469;-71
2022/06/17 04:49:14;;;;;;;12.67;11.30;;;;;;;;;;4998165;28;20481;-72
2022/06/17 04:51:42;;;;;;;17.03;13.17;;;;;;;;;;4994107;28;20465;-72
2022/06/17 04:54:08;;;;;;;17.77;12.60;;;;;;;;;;4994468;28;20489;-72
2022/06/17 04:56:35;;;;;;;13.80;12.30;;;;;;;;;;4994807;28;20946;-72
2022/06/17 04:59:15;;;;;;;14.27;12.03;;;;;;;;;;4991728;28;20489;-72
2022/06/17 05:01:42;;;;;;;16.33;12.80;;;;;;;;;;4998063;28;20473;-71
2022/06/17 05:04:08;;;;;;;18.43;13.20;;;;;;;;;;5000540;28;20484;-71
2022/06/17 05:06:35;;;;;;;15.00;13.40;;;;;;;;;;4999092;28;20470;-71
2022/06/17 05:09:04;;;;;;;17.90;13.43;;;;;;;;;;5000068;28;20841;-71
2022/06/17 05:11:33;;;;;;;16.47;13.30;;;;;;;;;;5001989;28;20472;-71
2022/06/17 05:14:02;;;;;;;17.10;13.03;;;;;;;;;;4999600;28;20493;-72
2022/06/17 05:16:28;;;;;;;15.47;12.73;;;;;;;;;;4998776;28;20458;-72
2022/06/17 05:18:55;;;;;;;14.10;12.67;;;;;;;;;;4999150;28;20842;-71
2022/06/17 05:21:22;;;;;;;15.30;13.77;;;;;;;;;;5001522;28;20473;-72
2022/06/17 05:23:50;;;;;;;18.33;13.93;;;;;;;;;;5000524;28;20489;-71
2022/06/17 05:26:18;;;;;;;17.67;12.50;;;;;;;;;;5000914;28;20465;-72
2022/06/17 05:28:46;;;;;;;17.20;14.33;;;;;;;;;;5000106;28;20537;-71
2022/06/17 05:31:14;;;;;;;15.83;12.37;;;;;;;;;;4999324;28;20980;-71
2022/06/17 05:33:40;;;;;;;15.90;12.13;;;;;;;;;;5041894;22;20484;-76
2022/06/17 05:36:07;;;;;;;16.53;12.33;;;;;;;;;;5038543;28;20455;-77
2022/06/17 05:38:33;;;;;;;14.50;12.20;;;;;;;;;;5037884;28;20476;-77
2022/06/17 05:41:00;;;;;;;15.37;11.40;;;;;;;;;;5038776;28;20452;-77
2022/06/17 05:43:27;;;;;;;18.50;12.83;;;;;;;;;;5028117;28;20485;-76
2022/06/17 05:45:54;;;;;;;14.07;12.10;;;;;;;;;;5021401;28;20466;-75
2022/06/17 05:48:20;;;;;;;16.17;12.10;;;;;;;;;;5022508;28;20473;-75
2022/06/17 05:50:46;;;;;;;12.90;11.53;;;;;;;;;;5020717;28;20438;-75
2022/06/17 05:53:13;;;;;;;13.70;10.50;;;;;;;;;;5019496;28;20473;-75
2022/06/17 05:55:40;;;;;;;16.10;11.53;;;;;;;;;;5021335;28;20461;-76
2022/06/17 05:58:07;;;;;;;13.03;10.77;;;;;;;;;;5020495;28;20454;-75
2022/06/17 06:00:35;;;;;;;15.43;11.77;;;;;;;;;;5018797;28;20949;-77
2022/06/17 06:03:02;;;;;;;14.90;11.10;;;;;;;;;;5021037;28;20473;-76
2022/06/17 06:05:29;;;;;;;15.60;11.47;;;;;;;;;;5018749;28;20432;-75
2022/06/17 06:07:56;;;;;;;10.97;9.87;;;;;;;;;;5020063;28;20472;-75
2022/06/17 06:10:23;;;;;;;11.13;9.53;;;;;;;;;;5020403;28;20453;-76
2022/06/17 06:12:57;;;;;;;11.53;9.23;;;;;;;;;;5020891;28;20477;-76
2022/06/17 06:15:24;;;;;;;16.20;9.97;;;;;;;;;;5018723;28;20889;-76
2022/06/17 06:17:52;;;;;;;11.60;10.03;;;;;;;;;;5020018;28;20975;-76
2022/06/17 06:20:19;;;;;;;13.07;8.80;;;;;;;;;;5020290;28;20442;-75
2022/06/17 06:22:45;;;;;;;9.70;8.70;;;;;;;;;;5021159;28;20473;-76
2022/06/17 06:25:12;;;;;;;14.03;9.57;;;;;;;;;;5019288;28;20462;-75
2022/06/17 06:27:38;;;;;;;13.17;8.87;;;;;;;;;;5024986;28;20454;-75
2022/06/17 06:30:05;;;;;;;8.30;7.50;;;;;;;;;;5017786;28;20450;-76
2022/06/17 06:32:32;;;;;;;11.33;9.10;;;;;;;;;;5024631;28;20470;-76
2022/06/17 06:34:59;;;;;;;9.73;7.87;;;;;;;;;;5024214;28;20486;-77
2022/06/17 06:37:25;;;;;;;10.10;7.93;;;;;;;;;;5023554;28;20428;-76
2022/06/17 06:39:52;;;;;;;10.60;8.10;;;;;;;;;;5023237;28;20452;-76
2022/06/17 06:42:19;;;;;;;14.43;8.37;;;;;;;;;;5025849;28;20997;-78
2022/06/17 06:44:45;;;;;;;9.40;7.30;;;;;;;;;;5023470;28;20477;-76
2022/06/17 06:47:12;;;;;;;8.60;7.70;;;;;;;;;;5026093;28;20443;-75
2022/06/17 06:49:38;;;;;;;12.07;6.63;;;;;;;;;;5024661;28;20473;-75
2022/06/17 06:52:07;;;;;;;11.30;7.37;;;;;;;;;;5026351;28;20500;-76
2022/06/17 06:54:33;;;;;;;8.87;7.53;;;;;;;;;;5023651;28;20472;-78
2022/06/17 06:57:00;;;;;;;8.30;7.27;;;;;;;;;;5025970;28;20828;-77
2022/06/17 06:59:26;;;;;;;9.80;6.40;;;;;;;;;;5023485;28;20473;-77
2022/06/17 07:01:52;;;;;;;12.63;7.50;;;;;;;;;;5024681;28;21252;-77
2022/06/17 07:04:19;;;;;;;7.33;6.60;;;;;;;;;;5023566;28;20440;-75
2022/06/17 07:06:45;;;;;;;10.30;8.37;;;;;;;;;;5024504;28;20490;-76
2022/06/17 07:09:13;;;;;;;10.87;8.40;;;;;;;;;;5022842;28;20488;-75
2022/06/17 07:11:39;;;;;;;12.53;8.37;;;;;;;;;;5025041;28;20448;-76
2022/06/17 07:14:06;;;;;;;13.23;8.70;;;;;;;;;;5023469;28;21075;-75
2022/06/17 07:16:32;;;;;;;9.40;7.20;;;;;;;;;;5023410;28;20794;-76
2022/06/17 07:18:59;;;;;;;9.73;8.13;;;;;;;;;;5022409;28;20821;-76
2022/06/17 07:21:25;;;;;;;7.63;6.80;;;;;;;;;;5023805;28;20530;-76
2022/06/17 07:23:51;;;;;;;8.87;6.50;;;;;;;;;;5023100;28;20476;-75
2022/06/17 07:26:20;;;;;;;8.63;6.10;;;;;;;;;;5023745;28;20473;-75
2022/06/17 07:28:47;;;;;;;8.57;6.23;;;;;;;;;;5023686;28;20491;-75
2022/06/17 07:31:13;;;;;;;8.33;6.83;;;;;;;;;;5022685;28;20488;-76
2022/06/17 07:33:40;;;;;;;8.40;6.83;;;;;;;;;;5023520;28;20476;-75
2022/06/17 07:36:07;;;;;;;7.23;6.30;;;;;;;;;;5022422;28;20565;-76
2022/06/17 07:41:23;;;;;;;7.50;6.70;;;;;;;;;;5023228;28;20469;-75
2022/06/17 07:43:50;;;;;;;8.00;6.00;;;;;;;;;;5024102;28;20469;-75
2022/06/17 07:46:16;;;;;;;8.00;6.27;;;;;;;;;;5022975;28;20465;-76
2022/06/17 07:48:43;;;;;;;9.63;6.20;;;;;;;;;;5022801;28;20461;-75
2022/06/17 07:51:09;;;;;;;10.67;6.07;;;;;;;;;;5023970;28;21130;-75
2022/06/17 07:53:41;;;;;;;8.60;6.47;;;;;;;;;;5022373;28;20471;-76
2022/06/17 07:56:07;;;;;;;7.13;5.50;;;;;;;;;;5021538;28;20479;-76
2022/06/17 07:58:35;;;;;;;7.47;6.20;;;;;;;;;;5023311;28;21213;-76
2022/06/17 08:01:01;;;;;;;8.33;5.73;;;;;;;;;;5022326;28;20473;-76
2022/06/17 08:03:28;;;;;;;8.27;6.20;;;;;;;;;;5023093;28;20495;-76
2022/06/17 08:05:55;;;;;;;8.67;5.67;;;;;;;;;;5021985;28;20469;-75
2022/06/17 08:08:22;;;;;;;5.33;4.83;;;;;;;;;;5021095;28;20448;-75
2022/06/17 08:10:49;;;;;;;7.43;5.30;;;;;;;;;;5019943;28;20996;-76
2022/06/17 08:13:15;;;;;;;7.93;5.23;;;;;;;;;;5022076;28;20471;-76
2022/06/17 08:15:43;;;;;;;7.90;5.87;;;;;;;;;;5019658;28;20477;-76
2022/06/17 08:18:09;;;;;;;5.50;4.90;;;;;;;;;;5022145;28;20843;-76
2022/06/17 08:20:36;;;;;;;6.37;5.10;;;;;;;;;;5020417;28;20857;-75
2022/06/17 08:23:03;;;;;;;11.10;5.57;;;;;;;;;;5020664;28;20616;-75
2022/06/17 08:25:29;;;;;;;5.60;4.33;;;;;;;;;;5021240;28;20476;-76
2022/06/17 08:27:57;;;;;;;13.43;6.00;;;;;;;;;;5022497;28;20476;-76
2022/06/17 08:30:24;;;;;;;7.53;4.83;;;;;;;;;;5018889;28;20823;-76
2022/06/17 08:32:53;;;;;;;6.50;5.07;;;;;;;;;;5020922;28;20520;-76
2022/06/17 08:35:21;;;;;;;8.50;5.50;;;;;;;;;;5019218;28;20473;-78
2022/06/17 08:37:48;;;;;;;7.47;5.80;;;;;;;;;;5021498;28;20941;-77
2022/06/17 08:40:25;;;;;;;7.00;6.27;;;;;;;;;;5021838;28;20506;-77
2022/06/17 08:43:00;;;;;;;6.20;5.00;;;;;;;;;;5020749;28;20836;-77
2022/06/17 08:45:31;;;;;;;11.10;6.37;;;;;;;;;;5020337;28;20485;-77
2022/06/17 08:48:07;;;;;;;8.70;6.23;;;;;;;;;;5021016;28;20460;-75
2022/06/17 08:50:40;;;;;;;13.20;7.60;;;;;;;;;;5020560;28;20511;-75
2022/06/17 08:53:16;;;;;;;8.90;6.03;;;;;;;;;;5021761;28;20488;-76
2022/06/17 08:55:46;;;;;;;5.97;5.37;;;;;;;;;;5020581;28;20502;-75
2022/06/17 08:58:22;;;;;;;8.70;5.70;;;;;;;;;;5021974;28;20971;-75
2022/06/17 09:00:55;;;;;;;8.97;6.00;;;;;;;;;;5020912;28;20487;-75
2022/06/17 09:03:35;;;;;;;8.57;6.20;;;;;;;;;;5020121;28;20477;-78
2022/06/17 09:06:10;;;;;;;6.90;5.30;;;;;;;;;;5022099;28;20481;-77
2022/06/17 09:08:44;;;;;;;9.53;7.07;;;;;;;;;;5022172;28;20464;-77
2022/06/17 09:11:15;;;;;;;8.60;6.60;;;;;;;;;;5021321;28;20486;-77
2022/06/17 09:13:46;;;;;;;8.50;6.00;;;;;;;;;;5021637;28;20478;-75
2022/06/17 09:16:16;;;;;;;9.70;5.57;;;;;;;;;;5018389;28;20502;-76
2022/06/17 09:18:44;;;;;;;6.40;5.80;;;;;;;;;;5020810;28;20560;-75
2022/06/17 09:21:13;;;;;;;7.70;6.40;;;;;;;;;;5022439;28;20468;-75
2022/06/17 09:23:40;;;;;;;11.10;5.53;;;;;;;;;;5020877;28;20474;-76
2022/06/17 09:26:08;;;;;;;12.13;5.87;;;;;;;;;;5020078;28;20476;-76
2022/06/17 09:28:36;;;;;;;6.73;6.13;;;;;;;;;;5022186;28;20449;-76
2022/06/17 09:31:06;;;;;;;10.20;6.20;;;;;;;;;;5020380;28;20468;-76
2022/06/17 09:33:36;;;;;;;14.60;6.47;;;;;;;;;;5020760;28;20496;-76
2022/06/17 09:36:09;;;;;;;6.60;5.70;;;;;;;;;;5021025;28;20473;-76
2022/06/17 09:38:38;;;;;;;6.13;5.53;;;;;;;;;;5021593;28;20940;-75
2022/06/17 09:41:08;;;;;;;5.43;4.90;;;;;;;;;;5021022;28;20464;-76
2022/06/17 09:43:36;;;;;;;9.20;6.63;;;;;;;;;;5020264;28;20461;-76
2022/06/17 09:46:07;;;;;;;7.43;6.50;;;;;;;;;;5021199;28;20472;-78
2022/06/17 09:48:36;;;;;;;6.90;6.17;;;;;;;;;;5021064;28;20992;-75
2022/06/17 09:51:06;;;;;;;7.90;6.73;;;;;;;;;;5020546;28;20488;-78
2022/06/17 09:53:36;;;;;;;7.47;6.50;;;;;;;;;;5021483;28;20468;-77
2022/06/17 09:56:06;;;;;;;7.13;6.40;;;;;;;;;;5021849;28;20967;-75
2022/06/17 09:58:37;;;;;;;9.00;6.30;;;;;;;;;;5019558;28;20444;-75
2022/06/17 10:01:04;;;;;;;6.83;6.13;;;;;;;;;;5023152;28;20476;-77
2022/06/17 10:03:32;;;;;;;8.90;5.97;;;;;;;;;;5025602;28;20476;-77
2022/06/17 10:06:04;;;;;;;8.17;7.00;;;;;;;;;;5024973;28;20475;-77
2022/06/17 10:08:40;;;;;;;7.33;5.80;;;;;;;;;;5024365;28;20486;-75
2022/06/17 10:11:11;;;;;;;9.67;7.17;;;;;;;;;;5026783;28;20476;-75
2022/06/17 10:13:42;;;;;;;13.90;6.67;;;;;;;;;;5024747;28;20465;-77
2022/06/17 10:19:04;;;;;;;13.23;7.00;;;;;;;;;;5026004;28;20791;-77
2022/06/17 10:21:36;;;;;;;8.67;7.43;;;;;;;;;;5025854;28;20453;-77
2022/06/17 10:24:07;;;;;;;7.23;6.50;;;;;;;;;;5024196;28;20476;-76
2022/06/17 10:26:39;;;;;;;7.07;6.30;;;;;;;;;;5025633;28;20990;-76
2022/06/17 10:29:15;;;;;;;7.00;6.30;;;;;;;;;;5026176;28;20444;-77
2022/06/17 10:31:43;;;;;;;7.97;5.80;;;;;;;;;;5027053;28;20476;-77
2022/06/17 10:34:13;;;;;;;6.23;5.60;;;;;;;;;;5023456;28;20473;-76
2022/06/17 10:36:39;;;;;;;9.23;6.70;;;;;;;;;;5025591;28;20453;-76
2022/06/17 10:39:10;;;;;;;11.17;7.23;;;;;;;;;;5024501;28;20454;-76
2022/06/17 10:41:37;;;;;;;10.03;6.87;;;;;;;;;;5024093;28;20944;-77
2022/06/17 10:44:07;;;;;;;8.60;6.80;;;;;;;;;;5024109;28;20476;-77
2022/06/17 10:46:38;;;;;;;9.23;6.07;;;;;;;;;;5024787;28;20441;-77
2022/06/17 10:49:10;;;;;;;7.60;6.90;;;;;;;;;;5024727;28;20476;-77
2022/06/17 10:51:36;;;;;;;8.07;6.03;;;;;;;;;;5024955;28;20476;-77
2022/06/17 10:54:04;;;;;;;9.43;5.03;;;;;;;;;;5024602;28;21802;-76
2022/06/17 10:56:34;;;;;;;6.53;5.47;;;;;;;;;;5024781;28;20808;-76
2022/06/17 10:59:02;;;;;;;5.70;5.20;;;;;;;;;;5024745;28;20445;-76
2022/06/17 11:01:49;;;;;;;7.17;6.47;;;;;;;;;;5022336;28;20463;-77
2022/06/17 11:04:17;;;;;;;7.17;6.20;;;;;;;;;;5026007;28;20483;-75
2022/06/17 11:06:47;;;;;;;10.17;5.77;;;;;;;;;;5022511;28;20453;-76
2022/06/17 11:09:18;;;;;;;8.80;6.23;;;;;;;;;;5024985;28;20443;-76
2022/06/17 11:12:06;;;;;;;7.20;6.00;;;;;;;;;;5023739;28;20485;-77
2022/06/17 11:14:38;;;;;;;9.23;6.47;;;;;;;;;;5023637;28;20472;-75
2022/06/17 11:17:11;;;;;;;7.90;6.03;;;;;;;;;;5024798;28;20449;-76
2022/06/17 11:19:38;;;;;;;8.00;6.53;;;;;;;;;;5024568;28;20473;-77
2022/06/17 11:22:05;;;;;;;7.73;5.47;;;;;;;;;;5023074;28;20472;-77
2022/06/17 11:24:33;;;;;;;5.63;4.73;;;;;;;;;;5023736;28;20469;-77
2022/06/17 11:27:04;;;;;;;12.40;5.07;;;;;;;;;;5025046;28;20456;-77
2022/06/17 11:29:38;;;;;;;7.40;5.20;;;;;;;;;;5023653;28;20497;-77
2022/06/17 11:34:50;;;;;;;8.00;5.73;;;;;;;;;;5058108;28;20463;-75
2022/06/17 11:37:19;;;;;;;6.33;5.83;;;;;;;;;;5060397;28;20447;-75
2022/06/17 11:39:45;;;;;;;7.20;5.60;;;;;;;;;;5059712;28;20970;-75
2022/06/17 11:42:17;;;;;;;8.37;5.47;;;;;;;;;;5060787;28;20450;-75
2022/06/17 11:44:49;;;;;;;7.50;5.50;;;;;;;;;;5038770;28;20500;-75
2022/06/17 11:47:19;;;;;;;7.67;5.07;;;;;;;;;;5036772;28;20915;-75
2022/06/17 11:49:46;;;;;;;6.30;5.30;;;;;;;;;;5040898;28;20468;-75
2022/06/17 11:52:23;;;;;;;6.20;5.60;;;;;;;;;;5039663;28;22270;-75
2022/06/17 11:54:51;;;;;;;11.30;6.93;;;;;;;;;;5040461;28;20487;-75
2022/06/17 11:57:20;;;;;;;8.93;7.23;;;;;;;;;;5040599;28;20448;-74
2022/06/17 11:59:48;;;;;;;6.53;5.90;;;;;;;;;;5040186;28;20475;-74
2022/06/17 12:02:15;;;;;;;6.43;5.57;;;;;;;;;;5040508;28;20932;-75
2022/06/17 12:04:43;;;;;;;8.00;5.73;;;;;;;;;;5038299;28;20476;-75
2022/06/17 12:07:28;;;;;;;12.57;7.27;;;;;;;;;;5040227;28;20445;-75
2022/06/17 12:09:56;;;;;;;7.57;5.47;;;;;;;;;;5039232;28;20486;-75
2022/06/17 12:12:24;;;;;;;7.27;5.80;;;;;;;;;;5039955;28;20449;-75
2022/06/17 12:14:55;;;;;;;8.23;6.13;;;;;;;;;;5040075;28;20786;-75
2022/06/17 12:17:21;;;;;;;9.97;7.03;;;;;;;;;;5040475;28;20464;-75
2022/06/17 12:19:48;;;;;;;10.10;6.80;;;;;;;;;;5037296;28;20475;-75
2022/06/17 12:22:17;;;;;;;6.07;5.47;;;;;;;;;;5039999;28;20445;-75
2022/06/17 12:24:47;;;;;;;6.83;6.17;;;;;;;;;;5035964;28;20479;-75
2022/06/17 12:27:19;;;;;;;6.83;6.23;;;;;;;;;;5040069;28;20448;-75
2022/06/17 12:29:49;;;;;;;7.47;6.00;;;;;;;;;;5040099;28;20854;-75
2022/06/17 12:32:20;;;;;;;7.97;5.80;;;;;;;;;;5038080;28;20488;-75
2022/06/17 12:34:49;;;;;;;9.40;6.87;;;;;;;;;;5038375;28;20478;-75
2022/06/17 12:37:28;;;;;;;17.43;7.97;;;;;;;;;;5039702;28;20444;-75
2022/06/17 12:39:58;;;;;;;7.63;6.80;;;;;;;;;;5039023;28;20476;-75
2022/06/17 12:42:28;;;;;;;6.90;6.20;;;;;;;;;;5037459;28;20479;-75
2022/06/17 12:45:02;;;;;;;7.97;6.40;;;;;;;;;;5032080;28;20484;-75
2022/06/17 12:47:32;;;;;;;11.63;7.50;;;;;;;;;;5039579;28;20464;-75
2022/06/17 12:55:40;;;;;;;8.80;7.17;;;;;;;;;;5038787;28;20514;-75
2022/06/17 12:58:11;;;;;;;7.90;6.37;;;;;;;;;;5039435;28;20448;-75
2022/06/17 13:00:41;;;;;;;7.93;6.40;;;;;;;;;;5036192;28;20478;-75
2022/06/17 13:03:21;;;;;;;10.73;7.33;;;;;;;;;;5040115;28;20472;-75
2022/06/17 13:05:48;;;;;;;8.20;7.40;;;;;;;;;;5037472;28;23716;-74
2022/06/17 13:08:26;;;;;;;11.70;6.90;;;;;;;;;;5039428;28;20943;-75
2022/06/17 13:10:56;;;;;;;8.73;6.33;;;;;;;;;;5038113;28;20831;-75
2022/06/17 13:13:38;;;;;;;8.60;6.47;;;;;;;;;;5039607;28;20476;-75
2022/06/17 13:16:09;;;;;;;10.20;7.20;;;;;;;;;;5038447;28;20469;-75
2022/06/17 13:18:37;;;;;;;7.10;6.40;;;;;;;;;;5037805;28;20460;-75
2022/06/17 13:21:06;;;;;;;9.40;7.43;;;;;;;;;;5038477;28;20467;-75
2022/06/17 13:23:35;;;;;;;8.67;6.80;;;;;;;;;;5039482;28;20475;-75
2022/06/17 13:26:08;;;;;;;8.20;6.60;;;;;;;;;;5037822;28;20472;-75
2022/06/17 13:28:36;;;;;;;9.10;5.70;;;;;;;;;;5039672;28;20444;-75
2022/06/17 13:31:06;;;;;;;6.20;5.33;;;;;;;;;;5033083;28;20474;-75
2022/06/17 13:33:36;;;;;;;8.67;7.63;;;;;;;;;;5037605;28;20467;-75
2022/06/17 13:36:05;;;;;;;8.73;7.40;;;;;;;;;;5037599;28;20994;-75
2022/06/17 13:38:33;;;;;;;9.30;6.47;;;;;;;;;;5039555;28;20451;-75
2022/06/17 13:41:04;;;;;;;12.20;7.27;;;;;;;;;;5034351;28;21005;-74
2022/06/17 13:43:34;;;;;;;9.13;6.20;;;;;;;;;;5038290;28;21053;-75
2022/06/17 13:46:06;;;;;;;8.40;6.30;;;;;;;;;;5038458;28;20555;-75
2022/06/17 13:48:34;;;;;;;6.33;5.83;;;;;;;;;;5036228;28;20456;-75
2022/06/17 13:51:08;;;;;;;9.10;6.57;;;;;;;;;;5034838;28;20476;-75
2022/06/17 13:53:43;;;;;;;9.50;6.67;;;;;;;;;;5036985;28;20468;-75
2022/06/17 13:56:12;;;;;;;12.43;7.93;;;;;;;;;;5037307;28;21006;-75
2022/06/17 13:58:45;;;;;;;9.47;7.20;;;;;;;;;;5037058;28;20457;-75
2022/06/17 14:01:32;;;;;;;7.47;6.47;;;;;;;;;;5033708;28;21292;-75
2022/06/17 14:04:10;;;;;;;6.97;6.30;;;;;;;;;;5038129;28;20468;-75
2022/06/17 14:07:04;;;;;;;9.70;6.03;;;;;;;;;;5037058;28;20444;-75
2022/06/17 14:09:34;;;;;;;7.40;6.70;;;;;;;;;;4989336;28;20477;-75
2022/06/17 14:12:01;;;;;;;6.97;6.27;;;;;;;;;;5038163;28;21059;-75
2022/06/17 14:14:50;;;;;;;7.70;6.10;;;;;;;;;;5038441;28;20845;-75
2022/06/17 14:17:18;;;;;;;9.07;6.30;;;;;;;;;;5038368;28;20527;-75
2022/06/17 14:19:47;;;;;;;6.90;6.20;;;;;;;;;;5038319;28;20469;-75
2022/06/17 14:22:23;;;;;;;6.30;5.60;;;;;;;;;;5034960;28;20461;-75
2022/06/17 14:24:59;;;;;;;6.67;6.03;;;;;;;;;;5037634;28;21001;-75
2022/06/17 14:27:45;;;;;;;7.37;6.27;;;;;;;;;;5033699;28;20455;-75
2022/06/17 14:30:30;;;;;;;8.10;6.10;;;;;;;;;;5034456;28;20480;-75
2022/06/17 14:32:57;;;;;;;8.33;4.90;;;;;;;;;;5036596;28;20984;-75
2022/06/17 14:35:29;;;;;;;9.20;5.97;;;;;;;;;;5033425;28;20479;-75
2022/06/17 14:38:06;;;;;;;11.50;5.93;;;;;;;;;;5038147;28;20449;-75
2022/06/17 14:42:01;;;;;;;8.37;5.77;;;;;;;;;;5037917;28;20463;-75
2022/06/17 14:43:23;;;;;;;11.10;5.77;;;;;;;;;;5036344;28;20476;-75
2022/06/17 14:45:54;;;;;;;7.10;6.00;;;;;;;;;;5030695;28;20503;-75
2022/06/17 14:48:31;;;;;;;6.10;5.50;;;;;;;;;;5040271;28;20446;-75
2022/06/17 14:50:59;;;;;;;9.07;5.57;;;;;;;;;;5040900;28;20494;-75
2022/06/17 14:53:27;;;;;;;6.17;5.63;;;;;;;;;;5041995;28;20467;-75
2022/06/17 14:56:29;;;;;;;6.17;5.40;;;;;;;;;;5041048;28;20464;-75
2022/06/17 14:58:57;;;;;;;6.47;5.40;;;;;;;;;;5040872;28;20443;-75
2022/06/17 15:01:25;;;;;;;7.27;5.83;;;;;;;;;;5041726;28;20465;-75
2022/06/17 15:03:58;;;;;;;5.80;5.30;;;;;;;;;;5039662;28;20904;-75
2022/06/17 15:06:27;;;;;;;5.63;5.03;;;;;;;;;;5041075;28;20547;-75